Decoded Metar for KMBY ( in ) (IATA:) | Meteo·Mobile Aviation Weather
aviador You're here:

KMBY Decoded Metar

in
Report Time2019-02-16 06:55:00
UTC Time2019-02-16 07:01:47
Flight Rules vfr VFR
Wind020° at 09 kt
W.Decomp.*RWY 05: 7.8 kt HW 4.5 kt LCW
RWY 31: 3.1 kt HW 8.5 kt RCW
W.Rank020° ranks 30
Current wind is above 020° avg. (7.3)
Visibility9999 m
Phenomena:N/A
Clouds:Overcast 055 Hf
Expected CloudBase > 2,400 ft AGL from Temp-Dew spread
Ceiling5,500 ft
Temp-7°C
Dew Point-13°C (63% RH)
AAT-13.5°C
QNH1020 hPa
Raw Report
KMBY 160655Z AUTO 02009KT 10SM OVC055 M07/M13 A3012 RMK AO2=

Extra information for KMBY:More info

Social comments